Time;durP1;ratioP1;P1;durP2;ratioP2;P2;SDS_P1;SDS_P2;PMS_P1;PMS_P2;Temp;Humidity;BMP_temperature;BMP_pressure;BME280_temperature;BME280_humidity;BME280_pressure;Samples;Min_cycle;Max_cycle;Signal;HPM_P1;HPM_P2
2021/12/08 00:00:41;;;;;;;6.13;3.15;;;2.90;99.90;;;;;;4954601;28;20439;-71
2021/12/08 00:03:09;;;;;;;5.03;2.38;;;3.10;99.90;;;;;;4993985;28;20470;-72
2021/12/08 00:05:36;;;;;;;10.00;4.68;;;3.20;99.90;;;;;;4992470;28;20053;-73
2021/12/08 00:08:04;;;;;;;5.25;3.13;;;2.50;99.90;;;;;;5054682;28;20050;-73
2021/12/08 00:13:07;;;;;;;6.82;4.00;;;2.90;99.90;;;;;;4994356;28;20421;-72
2021/12/08 00:15:45;;;;;;;3.03;2.20;;;3.60;99.90;;;;;;4992677;28;20053;-72
2021/12/08 00:18:16;;;;;;;6.45;4.03;;;3.10;99.90;;;;;;5052734;28;20042;-71
2021/12/08 00:20:46;;;;;;;4.85;2.83;;;2.70;99.90;;;;;;5058513;28;20432;-71
2021/12/08 00:23:12;;;;;;;4.57;2.35;;;2.30;99.90;;;;;;4990012;28;20639;-71
2021/12/08 00:25:38;;;;;;;4.18;2.90;;;1.90;99.90;;;;;;4973586;28;20668;-72
2021/12/08 00:28:07;;;;;;;6.18;2.47;;;3.10;99.90;;;;;;4990081;28;20121;-72
2021/12/08 00:30:35;;;;;;;10.98;5.15;;;2.90;99.90;;;;;;4998447;28;20122;-71
2021/12/08 00:33:01;;;;;;;8.45;5.72;;;3.20;99.90;;;;;;4986482;28;20062;-71
2021/12/08 00:35:28;;;;;;;6.22;3.20;;;3.60;99.90;;;;;;4987857;28;20134;-71
2021/12/08 00:37:57;;;;;;;3.65;2.38;;;3.30;99.90;;;;;;5002740;28;20047;-71
2021/12/08 00:40:25;;;;;;;8.52;4.65;;;2.50;99.90;;;;;;4974490;28;20067;-71
2021/12/08 00:42:51;;;;;;;9.00;4.35;;;3.30;99.90;;;;;;5005339;28;20057;-71
2021/12/08 00:45:18;;;;;;;8.15;3.72;;;2.10;99.90;;;;;;4993892;28;20047;-71
2021/12/08 00:47:45;;;;;;;6.65;3.78;;;3.10;99.90;;;;;;4986426;28;20100;-71
2021/12/08 00:50:13;;;;;;;4.80;3.13;;;3.20;99.90;;;;;;4986574;28;20050;-72
2021/12/08 00:52:39;;;;;;;7.90;3.35;;;2.30;99.90;;;;;;4939795;28;20050;-72
2021/12/08 00:55:09;;;;;;;9.10;4.40;;;3.10;99.90;;;;;;5005026;28;20478;-71
2021/12/08 00:57:35;;;;;;;9.20;4.18;;;2.60;99.90;;;;;;4992165;28;20129;-72
2021/12/08 01:00:06;;;;;;;13.07;4.55;;;3.00;99.90;;;;;;5003367;28;20134;-71
2021/12/08 01:02:31;;;;;;;6.80;3.20;;;3.40;99.90;;;;;;5057329;28;20042;-72
2021/12/08 01:04:57;;;;;;;9.40;5.13;;;3.20;99.90;;;;;;4992789;28;20513;-72
2021/12/08 01:07:23;;;;;;;5.50;3.10;;;2.60;99.90;;;;;;5008616;28;20056;-71
2021/12/08 01:09:49;;;;;;;10.93;4.95;;;3.50;99.90;;;;;;4989687;28;20054;-71
2021/12/08 01:12:15;;;;;;;5.15;3.40;;;3.50;99.90;;;;;;4995330;28;20045;-71
2021/12/08 01:14:41;;;;;;;9.13;4.38;;;3.10;99.90;;;;;;4990451;28;20046;-72
2021/12/08 01:17:09;;;;;;;7.55;4.57;;;3.20;99.90;;;;;;4985552;28;20375;-71
2021/12/08 01:19:35;;;;;;;8.48;3.13;;;2.90;99.90;;;;;;4985507;28;20141;-71
2021/12/08 01:22:01;;;;;;;8.02;4.20;;;3.20;99.90;;;;;;4992712;28;20057;-71
2021/12/08 01:24:27;;;;;;;5.70;3.30;;;2.60;99.90;;;;;;4968134;28;20069;-73
2021/12/08 01:26:54;;;;;;;6.28;4.15;;;2.60;99.90;;;;;;4991018;28;20046;-73
2021/12/08 01:29:20;;;;;;;6.90;2.95;;;3.30;99.90;;;;;;5056595;28;20058;-72
2021/12/08 01:31:46;;;;;;;7.43;3.03;;;3.60;99.90;;;;;;5037985;28;20054;-71
2021/12/08 01:34:13;;;;;;;8.40;3.22;;;3.20;99.90;;;;;;4988285;28;20065;-72
2021/12/08 01:36:40;;;;;;;8.40;4.93;;;3.60;99.90;;;;;;4989436;28;20446;-72
2021/12/08 01:39:07;;;;;;;7.72;3.67;;;3.80;99.90;;;;;;5005211;28;20085;-72
2021/12/08 01:41:34;;;;;;;9.25;4.20;;;3.10;99.90;;;;;;4971004;28;20053;-71
2021/12/08 01:46:44;;;;;;;5.72;3.55;;;3.60;99.90;;;;;;4971636;28;20629;-71
2021/12/08 01:49:10;;;;;;;6.55;3.90;;;4.00;99.90;;;;;;4988669;28;20111;-71
2021/12/08 01:51:37;;;;;;;6.47;3.60;;;4.00;99.90;;;;;;5003797;28;20490;-72
2021/12/08 01:54:05;;;;;;;10.13;4.45;;;3.90;99.90;;;;;;5056480;28;20053;-72
2021/12/08 01:56:37;;;;;;;7.90;4.20;;;3.20;99.90;;;;;;4971410;28;20412;-73
2021/12/08 01:59:06;;;;;;;4.03;2.65;;;4.30;99.90;;;;;;4971701;28;20043;-73
2021/12/08 02:01:33;;;;;;;6.15;3.03;;;3.80;99.90;;;;;;4987976;28;20078;-72
2021/12/08 02:04:04;;;;;;;3.80;3.40;;;3.80;99.90;;;;;;5004697;28;20088;-73
2021/12/08 02:06:34;;;;;;;8.38;4.03;;;3.70;99.90;;;;;;4953250;28;20050;-73
2021/12/08 02:09:01;;;;;;;5.25;3.35;;;3.60;99.90;;;;;;5004869;28;20405;-73
2021/12/08 02:11:26;;;;;;;6.00;3.42;;;3.20;99.90;;;;;;4971265;28;20050;-72
2021/12/08 02:13:59;;;;;;;4.88;2.90;;;3.30;99.90;;;;;;5056472;28;20050;-72
2021/12/08 02:16:25;;;;;;;6.00;3.33;;;3.20;99.90;;;;;;4970263;28;20046;-72
2021/12/08 02:18:52;;;;;;;8.98;4.13;;;3.20;99.90;;;;;;5023502;28;20053;-72
2021/12/08 02:21:36;;;;;;;5.90;3.70;;;4.10;99.90;;;;;;5008538;28;20447;-72
2021/12/08 02:24:07;;;;;;;7.03;4.18;;;4.00;99.90;;;;;;4989524;28;20107;-72
2021/12/08 02:26:34;;;;;;;5.88;3.05;;;3.20;99.90;;;;;;4990870;28;20037;-72
2021/12/08 02:29:05;;;;;;;6.47;3.05;;;4.00;99.90;;;;;;4989640;28;20049;-72
2021/12/08 02:32:10;;;;;;;5.18;4.10;;;3.80;99.90;;;;;;4971722;28;20129;-72
2021/12/08 02:48:06;;;;;;;6.88;3.83;;;4.20;99.90;;;;;;4952668;28;20098;-72
2021/12/08 02:50:38;;;;;;;6.55;4.07;;;4.20;99.90;;;;;;4998388;28;20046;-72
2021/12/08 02:53:05;;;;;;;7.53;4.13;;;4.00;99.90;;;;;;5059998;28;20117;-72
2021/12/08 02:55:32;;;;;;;8.15;4.80;;;4.00;99.90;;;;;;5012028;28;20125;-71
2021/12/08 02:58:01;;;;;;;5.57;3.42;;;3.20;99.90;;;;;;4991078;28;20034;-71
2021/12/08 03:00:29;;;;;;;8.00;3.50;;;4.20;99.90;;;;;;5015531;28;20073;-71
2021/12/08 03:02:57;;;;;;;5.75;3.40;;;4.20;99.90;;;;;;5060040;28;20061;-72
2021/12/08 03:05:24;;;;;;;7.05;4.68;;;3.20;99.90;;;;;;5057042;28;20058;-71
2021/12/08 03:07:50;;;;;;;8.77;4.70;;;3.20;99.90;;;;;;4991935;28;20041;-72
2021/12/08 03:10:19;;;;;;;8.95;4.07;;;4.20;99.90;;;;;;4983878;28;20050;-72
2021/12/08 03:12:44;;;;;;;6.97;3.83;;;3.20;99.90;;;;;;4954816;28;20104;-71
2021/12/08 03:15:12;;;;;;;5.82;3.50;;;3.20;99.90;;;;;;5006950;28;20511;-71
2021/12/08 03:17:38;;;;;;;5.85;3.35;;;3.20;99.90;;;;;;5006541;28;20116;-72
2021/12/08 03:20:08;;;;;;;7.68;4.82;;;4.00;99.90;;;;;;4992003;28;20030;-72
2021/12/08 03:22:37;;;;;;;7.00;3.80;;;3.40;99.90;;;;;;4974374;28;20054;-72
2021/12/08 03:25:06;;;;;;;4.20;3.03;;;4.50;99.90;;;;;;4989842;28;20046;-71
2021/12/08 03:27:40;;;;;;;8.07;3.92;;;3.30;99.90;;;;;;5047897;28;20042;-71
2021/12/08 03:30:20;;;;;;;5.83;3.47;;;3.80;99.90;;;;;;4992342;28;20050;-71
2021/12/08 03:32:46;;;;;;;8.07;4.97;;;3.40;99.90;;;;;;4991634;28;20058;-71
2021/12/08 03:35:16;;;;;;;5.57;4.25;;;4.40;99.90;;;;;;5028024;28;20046;-71
2021/12/08 03:37:44;;;;;;;10.40;6.43;;;4.30;99.90;;;;;;4974245;28;20112;-72
2021/12/08 03:40:18;;;;;;;11.35;5.93;;;3.40;99.90;;;;;;4976028;28;20626;-72
2021/12/08 03:42:45;;;;;;;9.55;4.47;;;4.20;99.90;;;;;;5006644;28;20046;-72
2021/12/08 03:45:15;;;;;;;7.53;4.90;;;3.50;99.90;;;;;;5003587;28;20486;-72
2021/12/08 03:47:43;;;;;;;7.95;6.03;;;3.50;99.90;;;;;;5006652;28;20416;-72
2021/12/08 03:50:13;;;;;;;10.30;7.05;;;4.70;99.90;;;;;;4998878;28;20088;-72
2021/12/08 03:52:39;;;;;;;11.65;6.72;;;4.60;99.90;;;;;;4954310;28;20055;-72
2021/12/08 03:55:08;;;;;;;8.27;5.75;;;4.80;99.90;;;;;;4970367;28;20169;-72
2021/12/08 03:57:34;;;;;;;6.88;4.65;;;4.80;99.90;;;;;;4986805;28;20074;-73
2021/12/08 04:00:00;;;;;;;7.53;6.35;;;3.70;99.90;;;;;;4992417;28;20069;-72
2021/12/08 04:02:26;;;;;;;7.85;5.53;;;4.80;99.90;;;;;;4990870;28;20092;-72
2021/12/08 04:04:51;;;;;;;10.55;6.63;;;3.80;99.90;;;;;;5000258;28;20046;-72
2021/12/08 04:07:19;;;;;;;9.63;5.85;;;4.50;99.90;;;;;;5006108;28;20053;-72
2021/12/08 04:09:47;;;;;;;8.52;6.95;;;4.80;99.90;;;;;;5004916;28;20046;-72
2021/12/08 04:12:16;;;;;;;7.45;5.07;;;4.80;99.90;;;;;;5059219;28;20081;-72
2021/12/08 04:14:56;;;;;;;9.85;6.35;;;4.50;99.90;;;;;;5049644;28;20123;-73
2021/12/08 04:17:26;;;;;;;12.25;7.38;;;3.80;99.90;;;;;;5023957;28;20095;-72
2021/12/08 04:19:55;;;;;;;8.38;5.97;;;3.90;99.90;;;;;;4981761;28;20048;-73
2021/12/08 04:22:26;;;;;;;10.18;7.00;;;4.20;99.90;;;;;;4973603;28;20046;-72
2021/12/08 04:24:53;;;;;;;8.45;6.30;;;4.90;99.90;;;;;;4993445;28;20493;-71
2021/12/08 04:27:27;;;;;;;10.88;6.85;;;4.70;99.90;;;;;;4991125;28;20054;-72
2021/12/08 04:29:54;;;;;;;11.05;8.02;;;5.00;99.90;;;;;;5005699;28;20119;-71
2021/12/08 04:32:23;;;;;;;11.25;8.90;;;4.10;99.90;;;;;;4972968;28;20056;-72
2021/12/08 04:34:51;;;;;;;8.43;5.80;;;5.00;99.90;;;;;;4982084;28;20047;-71
2021/12/08 04:37:26;;;;;;;13.57;8.55;;;4.30;99.90;;;;;;4987036;28;20498;-71
2021/12/08 04:40:10;;;;;;;12.15;9.48;;;4.10;99.90;;;;;;4989344;28;20432;-70
2021/12/08 04:45:16;;;;;;;12.05;8.73;;;4.60;99.90;;;;;;4995509;28;20056;-71
2021/12/08 04:48:04;;;;;;;9.88;7.22;;;5.10;99.90;;;;;;4989436;28;20080;-71
2021/12/08 04:53:32;;;;;;;9.05;6.38;;;4.30;99.90;;;;;;4990014;28;20034;-71
2021/12/08 05:04:23;;;;;;;12.23;8.63;;;5.30;99.90;;;;;;5014806;28;20122;-73
2021/12/08 05:07:02;;;;;;;14.63;10.70;;;5.30;99.90;;;;;;4982301;28;20073;-71
2021/12/08 05:09:32;;;;;;;12.15;8.40;;;4.40;99.90;;;;;;5009080;28;20050;-72
2021/12/08 05:12:05;;;;;;;12.05;8.70;;;4.40;99.90;;;;;;5005004;28;20042;-72
2021/12/08 05:14:40;;;;;;;11.93;8.57;;;4.40;99.90;;;;;;4999488;28;20179;-72
2021/12/08 05:17:15;;;;;;;12.73;9.73;;;5.00;99.90;;;;;;4953624;28;20394;-72
2021/12/08 05:19:43;;;;;;;11.50;9.38;;;5.10;99.90;;;;;;4986505;28;20047;-71
2021/12/08 05:22:28;;;;;;;13.30;8.15;;;5.00;99.90;;;;;;4990584;28;20052;-71
2021/12/08 05:24:56;;;;;;;8.43;6.25;;;4.50;99.90;;;;;;5025115;28;20081;-72
2021/12/08 05:27:25;;;;;;;12.80;10.18;;;4.40;99.90;;;;;;4992051;28;20065;-71
2021/12/08 05:30:04;;;;;;;13.20;7.40;;;5.50;99.90;;;;;;5010366;28;20227;-70
2021/12/08 05:32:30;;;;;;;13.20;10.70;;;4.70;99.90;;;;;;5020899;28;20042;-71
2021/12/08 05:34:56;;;;;;;11.95;9.98;;;5.40;99.90;;;;;;4994089;28;20488;-71
2021/12/08 05:37:24;;;;;;;14.48;10.02;;;5.50;99.90;;;;;;4952645;28;20054;-73
2021/12/08 05:39:51;;;;;;;9.43;7.28;;;5.50;99.90;;;;;;4969336;28;20042;-71
2021/12/08 05:42:25;;;;;;;12.93;9.25;;;5.50;99.90;;;;;;4972485;28;20117;-73
2021/12/08 05:44:51;;;;;;;13.18;9.82;;;5.10;99.90;;;;;;4973669;28;20061;-71
2021/12/08 05:47:21;;;;;;;13.75;10.85;;;5.60;99.90;;;;;;4984479;28;20373;-71
2021/12/08 05:49:47;;;;;;;12.18;9.77;;;4.70;99.90;;;;;;4985688;28;20612;-71
2021/12/08 05:52:14;;;;;;;11.88;9.15;;;5.60;99.90;;;;;;5004800;28;20390;-71
2021/12/08 05:54:42;;;;;;;14.27;9.73;;;5.50;99.90;;;;;;4993803;28;20483;-72
2021/12/08 05:57:12;;;;;;;11.77;9.27;;;4.60;99.90;;;;;;4972477;28;20393;-72
2021/12/08 05:59:39;;;;;;;11.43;7.88;;;5.30;99.90;;;;;;4987640;28;20039;-72
2021/12/08 06:02:27;;;;;;;12.32;8.48;;;4.80;99.90;;;;;;5053938;28;20466;-71
2021/12/08 06:04:52;;;;;;;14.95;9.48;;;4.60;99.90;;;;;;5056542;28;20446;-73
2021/12/08 06:07:22;;;;;;;12.25;8.93;;;5.60;99.90;;;;;;5035807;28;20125;-72
2021/12/08 06:09:54;;;;;;;11.23;8.38;;;5.80;99.90;;;;;;4989474;28;20039;-72
2021/12/08 06:12:20;;;;;;;10.57;8.05;;;5.70;99.90;;;;;;4991378;28;20129;-72
2021/12/08 06:14:46;;;;;;;12.35;10.00;;;4.70;99.90;;;;;;4995854;28;20474;-73
2021/12/08 06:17:18;;;;;;;14.02;8.98;;;4.90;99.90;;;;;;5053383;28;20050;-71
2021/12/08 06:19:46;;;;;;;16.02;8.48;;;5.20;99.90;;;;;;4987319;28;20478;-72
2021/12/08 06:22:13;;;;;;;14.30;8.80;;;5.00;99.90;;;;;;4971589;28;20398;-72
2021/12/08 06:24:40;;;;;;;14.32;9.55;;;5.00;99.90;;;;;;4986591;28;20071;-72
2021/12/08 06:27:06;;;;;;;12.52;9.13;;;5.80;99.90;;;;;;4986268;28;20046;-72
2021/12/08 06:29:32;;;;;;;15.95;9.20;;;4.90;99.90;;;;;;5046500;28;20054;-71
2021/12/08 06:32:01;;;;;;;12.90;8.73;;;4.90;99.90;;;;;;5061450;28;20092;-71
2021/12/08 06:34:28;;;;;;;12.73;8.35;;;5.80;99.90;;;;;;4986293;28;20058;-71
2021/12/08 06:37:09;;;;;;;14.60;9.43;;;5.70;99.90;;;;;;4990985;28;20047;-73
2021/12/08 06:39:53;;;;;;;16.33;9.02;;;5.20;99.90;;;;;;4989324;28;20075;-72
2021/12/08 06:42:23;;;;;;;11.82;8.18;;;5.20;99.90;;;;;;4955862;28;20042;-73
2021/12/08 06:44:51;;;;;;;9.43;6.53;;;5.70;99.90;;;;;;4987753;28;20049;-72
2021/12/08 06:47:20;;;;;;;9.00;6.85;;;5.10;99.90;;;;;;4992239;28;20042;-73
2021/12/08 06:49:49;;;;;;;16.52;8.90;;;5.70;99.90;;;;;;5007600;28;20041;-73
2021/12/08 06:52:21;;;;;;;11.23;7.60;;;5.00;99.90;;;;;;4977639;28;20042;-71
2021/12/08 06:54:58;;;;;;;11.18;7.35;;;5.10;99.90;;;;;;4958576;28;20039;-72
2021/12/08 06:57:33;;;;;;;8.43;5.75;;;5.30;99.90;;;;;;5003763;28;20812;-72
2021/12/08 07:00:16;;;;;;;8.88;7.30;;;5.80;99.90;;;;;;5006699;28;20038;-71
2021/12/08 07:05:26;;;;;;;10.75;7.20;;;5.20;99.90;;;;;;4973900;28;20050;-72
2021/12/08 07:08:00;;;;;;;10.88;7.43;;;5.00;99.90;;;;;;4992357;28;20053;-71
2021/12/08 07:10:35;;;;;;;13.13;6.53;;;5.30;99.90;;;;;;4992668;28;20076;-71
2021/12/08 07:13:12;;;;;;;11.13;6.18;;;5.10;99.90;;;;;;4989350;28;20051;-71
2021/12/08 07:15:50;;;;;;;9.00;5.38;;;5.50;99.90;;;;;;4987366;28;20122;-70
2021/12/08 07:18:52;;;;;;;9.70;6.68;;;5.20;99.90;;;;;;4990112;28;20100;-72
2021/12/08 07:21:19;;;;;;;9.68;6.20;;;5.40;99.90;;;;;;4974285;28;20042;-71
2021/12/08 07:24:07;;;;;;;9.95;5.00;;;5.20;99.90;;;;;;4974245;28;20038;-72
2021/12/08 07:26:38;;;;;;;12.95;6.70;;;5.30;99.90;;;;;;5037515;28;20123;-72
2021/12/08 07:29:05;;;;;;;11.75;6.20;;;5.20;99.90;;;;;;5058955;28;20108;-69
2021/12/08 07:31:54;;;;;;;7.35;5.18;;;5.40;99.90;;;;;;4991330;28;20065;-72
2021/12/08 07:34:23;;;;;;;10.70;6.13;;;5.80;99.90;;;;;;4974339;28;20086;-71
2021/12/08 07:36:54;;;;;;;10.77;5.28;;;5.60;99.90;;;;;;5006235;28;20050;-71
2021/12/08 07:39:26;;;;;;;9.50;5.50;;;5.10;99.90;;;;;;4973495;28;20104;-71
2021/12/08 07:41:56;;;;;;;11.63;5.80;;;5.30;99.90;;;;;;4996819;28;20054;-71
2021/12/08 07:44:24;;;;;;;7.10;4.90;;;5.70;99.90;;;;;;4954913;28;20039;-72
2021/12/08 07:46:58;;;;;;;9.70;5.13;;;5.70;99.90;;;;;;4986928;28;20510;-71
2021/12/08 07:49:31;;;;;;;10.40;4.95;;;5.10;99.90;;;;;;4996110;28;20073;-71
2021/12/08 07:51:59;;;;;;;7.18;3.72;;;5.60;99.90;;;;;;4993857;28;20047;-71
2021/12/08 07:54:26;;;;;;;6.72;3.92;;;5.50;99.90;;;;;;4990890;28;20046;-73
2021/12/08 07:56:55;;;;;;;8.50;4.25;;;5.20;99.90;;;;;;5057693;28;20047;-71
2021/12/08 07:59:21;;;;;;;7.47;4.03;;;5.00;99.90;;;;;;5012632;28;20042;-71
2021/12/08 08:01:50;;;;;;;8.52;4.00;;;5.10;99.90;;;;;;4969890;28;20041;-72
2021/12/08 08:04:20;;;;;;;7.60;3.40;;;5.10;99.90;;;;;;5002997;28;20394;-72
2021/12/08 08:06:51;;;;;;;5.57;3.70;;;5.20;99.90;;;;;;5058860;28;20057;-72
2021/12/08 08:09:22;;;;;;;7.57;3.70;;;5.60;99.90;;;;;;4990146;28;20582;-72
2021/12/08 08:11:56;;;;;;;5.65;3.47;;;5.60;99.90;;;;;;4993529;28;20042;-72
2021/12/08 08:14:39;;;;;;;7.57;3.83;;;5.40;99.90;;;;;;4985253;28;20076;-71
2021/12/08 08:17:12;;;;;;;9.52;5.07;;;5.50;99.90;;;;;;4996541;28;20061;-71
2021/12/08 08:19:44;;;;;;;6.05;2.85;;;5.10;99.90;;;;;;5003412;28;20078;-72
2021/12/08 08:22:14;;;;;;;7.05;3.78;;;5.30;99.90;;;;;;5005561;28;20038;-71
2021/12/08 08:24:40;;;;;;;5.65;3.63;;;5.30;99.90;;;;;;4983119;28;20042;-71
2021/12/08 08:27:08;;;;;;;7.38;4.00;;;4.90;99.90;;;;;;5058602;28;20061;-72
2021/12/08 08:29:38;;;;;;;6.70;3.50;;;5.50;99.90;;;;;;5052257;28;20047;-72
2021/12/08 08:32:11;;;;;;;7.57;3.65;;;5.60;99.90;;;;;;5004953;28;20042;-72
2021/12/08 08:34:41;;;;;;;5.68;3.40;;;5.20;99.90;;;;;;4977747;28;20199;-71
2021/12/08 08:37:11;;;;;;;8.07;3.38;;;5.10;99.90;;;;;;4973854;28;20050;-71
2021/12/08 08:39:43;;;;;;;7.25;3.13;;;5.60;99.90;;;;;;4973405;28;20045;-71
2021/12/08 08:42:36;;;;;;;8.73;3.38;;;5.40;99.90;;;;;;4977672;28;20034;-72
2021/12/08 08:45:16;;;;;;;8.75;3.28;;;5.10;99.90;;;;;;5005846;28;20504;-71
2021/12/08 08:47:56;;;;;;;7.03;3.08;;;5.60;99.90;;;;;;5050282;28;20045;-71
2021/12/08 08:50:36;;;;;;;11.30;4.40;;;5.10;99.90;;;;;;5057356;28;20058;-72
2021/12/08 08:53:03;;;;;;;7.32;2.63;;;5.30;99.90;;;;;;5031555;28;20046;-72
2021/12/08 08:55:35;;;;;;;10.63;4.10;;;5.60;99.90;;;;;;4955320;28;20049;-71
2021/12/08 08:58:03;;;;;;;9.10;3.95;;;5.10;99.90;;;;;;4980563;28;20081;-71
2021/12/08 09:00:34;;;;;;;5.13;2.72;;;5.20;99.90;;;;;;4996969;28;20656;-71
2021/12/08 09:03:13;;;;;;;5.60;2.88;;;5.70;99.90;;;;;;4985649;28;20576;-72
2021/12/08 09:05:52;;;;;;;7.03;2.45;;;5.40;99.90;;;;;;4984783;28;20057;-72
2021/12/08 09:08:20;;;;;;;7.13;3.88;;;5.40;99.90;;;;;;4980027;28;20104;-71
2021/12/08 09:11:10;;;;;;;7.90;3.22;;;5.80;99.90;;;;;;4997391;28;20103;-70
2021/12/08 09:13:43;;;;;;;4.40;2.60;;;5.90;99.90;;;;;;4980768;28;20651;-72
2021/12/08 09:16:15;;;;;;;5.60;2.22;;;5.90;99.90;;;;;;4977218;28;20057;-71
2021/12/08 09:18:54;;;;;;;7.13;2.38;;;5.70;99.90;;;;;;4948884;28;20054;-71
2021/12/08 09:21:43;;;;;;;9.20;2.70;;;5.60;99.90;;;;;;4983488;28;20039;-72
2021/12/08 09:24:38;;;;;;;5.72;2.08;;;5.80;99.90;;;;;;4955818;28;20051;-72
2021/12/08 09:27:08;;;;;;;4.60;2.33;;;5.60;99.90;;;;;;5028567;28;20062;-72
2021/12/08 09:29:45;;;;;;;6.65;2.10;;;5.80;99.90;;;;;;5048643;28;20064;-72
2021/12/08 09:32:18;;;;;;;6.40;2.17;;;5.60;99.90;;;;;;4989746;28;20058;-72
2021/12/08 09:34:58;;;;;;;7.68;2.40;;;5.80;99.90;;;;;;5049727;28;20574;-71
2021/12/08 09:37:32;;;;;;;5.68;2.60;;;5.80;99.90;;;;;;5047878;28;20669;-71
2021/12/08 09:40:05;;;;;;;9.57;2.97;;;5.80;99.90;;;;;;4976863;28;20054;-71
2021/12/08 09:42:39;;;;;;;7.47;2.33;;;5.80;99.90;;;;;;4968068;28;20050;-71
2021/12/08 09:45:08;;;;;;;;;;;5.60;99.90;;;;;;4973909;28;20064;-71
2021/12/08 09:47:35;;;;;;;6.90;2.17;;;5.70;99.90;;;;;;4960052;28;19930;-70
2021/12/08 09:50:05;;;;;;;10.82;2.83;;;5.60;99.90;;;;;;5000547;28;20050;-71
2021/12/08 09:52:31;;;;;;;9.25;2.63;;;5.80;99.90;;;;;;4983566;28;20409;-71
2021/12/08 09:54:59;;;;;;;6.75;2.40;;;5.80;99.90;;;;;;5030585;28;20061;-70
2021/12/08 09:57:27;;;;;;;10.55;2.75;;;5.70;99.90;;;;;;5016878;28;20125;-70
2021/12/08 09:59:53;;;;;;;7.97;3.03;;;5.90;99.90;;;;;;5031834;28;20050;-70
2021/12/08 10:02:34;;;;;;;7.47;2.40;;;6.00;99.90;;;;;;5047547;28;20046;-70
2021/12/08 10:05:14;;;;;;;9.20;2.92;;;6.30;99.90;;;;;;5045029;28;20050;-71
2021/12/08 10:07:42;;;;;;;8.90;2.88;;;6.50;99.90;;;;;;5015097;28;20050;-71
2021/12/08 10:10:12;;;;;;;5.40;2.40;;;6.50;99.90;;;;;;4963108;28;20045;-71
2021/12/08 10:12:38;;;;;;;7.88;2.75;;;6.60;99.90;;;;;;4963653;28;20042;-70
2021/12/08 10:15:07;;;;;;;11.00;2.60;;;6.50;99.90;;;;;;4993832;28;20468;-70
2021/12/08 10:17:33;;;;;;;5.10;2.40;;;6.40;99.90;;;;;;4964738;28;20039;-70
2021/12/08 10:20:19;;;;;;;5.28;2.25;;;6.40;99.90;;;;;;4963173;28;20043;-71
2021/12/08 10:22:48;;;;;;;7.55;2.33;;;6.30;99.90;;;;;;4965658;28;20050;-71
2021/12/08 10:25:19;;;;;;;5.38;1.98;;;6.30;99.90;;;;;;4991539;28;20054;-71
2021/12/08 10:28:03;;;;;;;5.32;2.28;;;6.30;99.90;;;;;;4970392;28;20066;-70
2021/12/08 10:30:30;;;;;;;5.97;2.53;;;6.30;99.90;;;;;;4955444;28;20045;-70
2021/12/08 10:32:56;;;;;;;8.18;3.72;;;6.60;99.90;;;;;;4970935;28;20046;-72
2021/12/08 10:35:45;;;;;;;8.38;3.40;;;6.70;99.90;;;;;;4963473;28;20893;-72
2021/12/08 10:38:14;;;;;;;7.38;2.95;;;7.00;99.90;;;;;;4952479;28;20046;-72
2021/12/08 10:41:03;;;;;;;5.93;2.28;;;6.80;99.90;;;;;;4979790;28;20049;-72
2021/12/08 10:43:30;;;;;;;10.18;3.28;;;6.80;99.90;;;;;;4963583;28;20092;-72
2021/12/08 10:46:00;;;;;;;5.68;2.70;;;6.90;99.90;;;;;;4964870;28;20125;-72
2021/12/08 10:48:35;;;;;;;7.90;2.83;;;7.10;99.90;;;;;;4965166;28;20714;-72
2021/12/08 10:56:38;;;;;;;7.65;2.50;;;7.50;99.90;;;;;;4975439;28;20145;-73
2021/12/08 10:59:04;;;;;;;10.00;2.55;;;7.60;99.90;;;;;;4974803;28;20070;-72
2021/12/08 11:01:30;;;;;;;5.60;3.08;;;7.40;99.90;;;;;;4982200;28;20081;-72
2021/12/08 11:04:16;;;;;;;5.65;2.28;;;7.20;99.90;;;;;;4982372;28;20046;-72
2021/12/08 11:06:42;;;;;;;7.50;1.90;;;7.40;99.90;;;;;;5066792;28;20058;-72
2021/12/08 11:09:21;;;;;;;9.10;2.85;;;7.20;99.90;;;;;;4954143;28;20050;-72
2021/12/08 11:11:48;;;;;;;8.95;2.60;;;7.50;99.90;;;;;;4975700;28;20370;-72
2021/12/08 11:14:14;;;;;;;7.30;3.13;;;7.10;99.90;;;;;;4985131;28;20130;-72
2021/12/08 11:16:44;;;;;;;8.07;2.47;;;6.90;99.90;;;;;;4966651;28;20045;-72
2021/12/08 11:19:22;;;;;;;7.07;2.33;;;6.80;99.90;;;;;;4986790;28;20582;-71
2021/12/08 11:21:55;;;;;;;6.22;2.25;;;6.60;99.90;;;;;;4966152;28;20042;-71
2021/12/08 11:24:44;;;;;;;7.03;2.28;;;6.50;99.90;;;;;;4966025;28;20061;-71
2021/12/08 11:27:11;;;;;;;10.85;2.40;;;6.50;99.90;;;;;;4965594;28;20046;-72
2021/12/08 11:29:42;;;;;;;5.63;2.60;;;6.50;99.90;;;;;;4983703;28;20803;-72
2021/12/08 11:32:10;;;;;;;5.85;2.65;;;6.40;99.90;;;;;;4978554;28;20051;-70
2021/12/08 11:34:39;;;;;;;10.32;3.13;;;6.50;99.90;;;;;;4974826;28;20056;-71
2021/12/08 11:37:14;;;;;;;9.98;2.80;;;6.50;99.90;;;;;;4961850;28;20063;-71
2021/12/08 11:39:47;;;;;;;4.78;2.13;;;6.50;99.90;;;;;;4961080;28;20039;-71
2021/12/08 11:42:21;;;;;;;8.43;2.78;;;6.50;99.90;;;;;;4944625;28;20043;-72
2021/12/08 11:44:50;;;;;;;5.75;2.13;;;6.40;99.90;;;;;;4962835;28;20043;-72
2021/12/08 11:47:22;;;;;;;9.90;3.17;;;6.40;99.90;;;;;;4962321;28;20068;-72
2021/12/08 11:49:57;;;;;;;4.40;2.35;;;6.40;99.90;;;;;;4951947;28;20047;-72
2021/12/08 11:52:32;;;;;;;5.55;2.28;;;6.40;99.90;;;;;;4948609;28;20054;-71
2021/12/08 11:55:02;;;;;;;6.72;2.72;;;6.40;99.90;;;;;;4946036;28;20049;-72
2021/12/08 11:57:51;;;;;;;4.75;2.28;;;6.30;99.90;;;;;;4945910;28;20054;-72
2021/12/08 12:00:21;;;;;;;8.45;2.40;;;6.50;99.90;;;;;;4949464;28;20043;-72
2021/12/08 12:02:57;;;;;;;8.30;2.72;;;6.30;99.90;;;;;;4943427;28;20047;-73
2021/12/08 12:05:26;;;;;;;6.43;2.33;;;6.40;99.90;;;;;;4943489;29;20802;-72
2021/12/08 12:07:52;;;;;;;7.32;2.45;;;6.40;99.90;;;;;;4943381;29;20083;-73
2021/12/08 12:10:21;;;;;;;5.20;2.65;;;6.60;99.90;;;;;;4951713;28;20141;-72
2021/12/08 12:12:48;;;;;;;5.40;2.58;;;6.30;99.90;;;;;;4961259;28;20054;-72
2021/12/08 12:15:17;;;;;;;6.43;2.13;;;6.30;99.90;;;;;;4961147;28;20050;-72
2021/12/08 12:17:45;;;;;;;7.03;2.60;;;6.30;99.90;;;;;;4942502;28;20062;-72
2021/12/08 12:20:18;;;;;;;12.35;3.38;;;6.20;99.90;;;;;;4947239;28;20066;-73
2021/12/08 12:23:07;;;;;;;5.68;2.22;;;6.20;99.90;;;;;;4960205;28;20062;-72
2021/12/08 12:25:41;;;;;;;5.78;2.10;;;6.20;99.90;;;;;;4942295;28;20047;-73
2021/12/08 12:28:33;;;;;;;4.63;2.30;;;6.20;99.90;;;;;;4942187;28;20051;-73
2021/12/08 12:31:21;;;;;;;6.35;2.45;;;6.20;99.90;;;;;;4934896;28;20046;-72
2021/12/08 12:33:49;;;;;;;7.43;2.83;;;6.20;99.90;;;;;;4966868;28;20058;-73
2021/12/08 12:36:33;;;;;;;7.13;2.45;;;6.20;99.90;;;;;;4983714;28;20178;-72
2021/12/08 12:39:18;;;;;;;5.50;2.47;;;6.10;99.90;;;;;;4968704;28;20046;-71
2021/12/08 12:41:56;;;;;;;7.10;2.25;;;6.10;99.90;;;;;;4977549;28;20054;-71
2021/12/08 12:45:06;;;;;;;11.68;3.33;;;6.10;99.90;;;;;;4975389;28;20046;-71
2021/12/08 12:47:31;;;;;;;4.15;2.65;;;6.10;99.90;;;;;;4964636;28;20152;-71
2021/12/08 12:50:00;;;;;;;9.88;3.08;;;6.10;99.90;;;;;;4974739;28;20055;-71
2021/12/08 12:52:44;;;;;;;5.45;2.88;;;6.20;99.90;;;;;;4974304;28;20574;-71
2021/12/08 12:55:31;;;;;;;5.85;2.95;;;6.10;99.90;;;;;;4954787;28;20057;-72
2021/12/08 12:58:03;;;;;;;4.90;2.45;;;6.10;99.90;;;;;;4992849;28;20050;-72
2021/12/08 13:00:51;;;;;;;8.43;3.70;;;6.10;99.90;;;;;;5003099;28;20050;-72
2021/12/08 13:03:46;;;;;;;6.30;2.65;;;6.20;99.90;;;;;;4983118;28;20137;-71
2021/12/08 13:06:15;;;;;;;5.45;2.85;;;6.10;99.90;;;;;;4998681;28;20064;-72
2021/12/08 13:08:45;;;;;;;10.55;2.92;;;6.10;99.90;;;;;;4983930;28;20473;-72
2021/12/08 13:11:27;;;;;;;3.58;2.40;;;6.10;99.90;;;;;;4962824;28;20146;-72
2021/12/08 13:13:54;;;;;;;10.32;2.70;;;6.10;99.90;;;;;;4964492;28;20502;-72
2021/12/08 13:16:28;;;;;;;7.03;2.97;;;6.10;99.90;;;;;;4968802;28;20046;-72
2021/12/08 13:19:14;;;;;;;7.38;2.80;;;6.10;99.90;;;;;;4979140;28;20046;-73
2021/12/08 13:21:45;;;;;;;6.88;2.83;;;6.10;99.90;;;;;;4984976;28;20114;-73
2021/12/08 13:24:41;;;;;;;4.50;2.00;;;6.10;99.90;;;;;;4983014;28;20045;-72
2021/12/08 13:27:06;;;;;;;5.70;2.67;;;6.10;99.90;;;;;;4964180;28;20108;-72
2021/12/08 13:29:35;;;;;;;4.43;2.45;;;6.00;99.90;;;;;;4963913;28;20064;-71
2021/12/08 13:32:15;;;;;;;5.07;2.30;;;6.00;99.90;;;;;;4952338;28;20102;-72
2021/12/08 13:34:54;;;;;;;3.58;1.95;;;6.00;99.90;;;;;;4980110;28;20066;-73
2021/12/08 13:37:25;;;;;;;7.53;2.90;;;6.00;99.90;;;;;;4960857;28;20050;-73
2021/12/08 13:39:53;;;;;;;7.93;2.90;;;6.00;99.90;;;;;;4969357;28;20046;-72
2021/12/08 13:42:28;;;;;;;8.27;2.63;;;6.10;99.90;;;;;;4953114;28;20716;-73
2021/12/08 13:45:16;;;;;;;6.82;2.72;;;6.00;99.90;;;;;;4960835;28;20168;-73
2021/12/08 13:47:44;;;;;;;8.82;2.80;;;6.00;99.90;;;;;;4978989;28;20050;-73
2021/12/08 13:50:16;;;;;;;6.03;2.40;;;6.00;99.90;;;;;;4965540;28;20121;-73
2021/12/08 13:53:06;;;;;;;7.88;2.90;;;6.00;99.90;;;;;;4961058;28;20054;-73
2021/12/08 13:55:33;;;;;;;4.55;2.40;;;6.00;99.90;;;;;;4960542;28;20050;-72
2021/12/08 13:58:21;;;;;;;7.93;2.50;;;6.10;99.90;;;;;;4960468;28;20053;-73
2021/12/08 14:00:54;;;;;;;5.22;2.00;;;6.10;99.90;;;;;;4944494;28;20157;-73